Aeroporto :
LOGIN :

Iscrizione | Disclaimer

   EN    FR    IT 

 










Sommario :    VFR   VFR Marginale   IFR   IFR Intensivo   IFR Molto Intensivo
Visibilità : 
Base nubi : 
>= 8 km
>= 3000ft
5 / 8 km
1000 / 3000 ft
1500m / 5 km
500 / 1000 ft
800 / 1500m
200 / 500 ft
< 800m
< 200 ft
Simboli :   Temporali  Nebbia  Neve Forte  Precipitazioni Forti  Vento > 20 kt
SIGMETs :   Varie  Temporali  Ghiacco  Turbolenza  Onda orograficha  Ceneri Vulcaniche







- Altitudine del aeroporto : 1 ft
- Carte del aeroporto


EGCK - Caernarfon

METARs OBSOLETI :
  • 212250Z AUTO 18010KT 9000 OVC002/// 09/08 Q1029
  • 212220Z AUTO 19009KT 9999 OVC002/// 09/08 Q1029
  • 212150Z AUTO 18011KT 9999 OVC002/// 09/08 Q1030

TAF TAF EGCK
Valido dal 22 a 00 ore il 22 a 09 ore UTC


212255Z 2200/2209 18012KT 9999 SCT025
TEMPO 2200/2204 BKN009
PROB40
TEMPO 2200/2204 6000 BKN004
BECMG 2204/2207 20018G30KT
Nessun NOTAM noto per questo aeroporto.



MetMap, La meteo Aeronautica in un colpo d'occhio ! - Copyright ORBIFLY Dicembre 2007 - Disclaimer

ORBIFLY MET'MAP TEAM :

Programmazione e sviluppo : Alexandra Zaïnal
Concezione e sviluppo : Baudouin d'Aumeries
Co-Programmazione e sviluppo : Marc-Olivier Méhu
Supporto tecnico e logistico : Manuel Goepfert
Aiuto per la traduzione : Arnaldo La Scala

Contatto : metmap@orbifly.com




FONTI E CREDITI :

   NOAA